Time;durP1;ratioP1;P1;durP2;ratioP2;P2;SDS_P1;SDS_P2;PMS_P1;PMS_P2;Temp;Humidity;BMP_temperature;BMP_pressure;BME280_temperature;BME280_humidity;BME280_pressure;Samples;Min_cycle;Max_cycle;Signal;HPM_P1;HPM_P2
2022/12/11 00:00:20;;;;;;;;;;;;;;;1.05;73.12;97692.75;7384891;19;19927;-72
2022/12/11 00:02:47;;;;;;;;;;;;;;;1.12;72.77;97703.53;7385300;19;19919;-71
2022/12/11 00:05:13;;;;;;;;;;;;;;;1.15;72.66;97692.91;7386562;19;19999;-71
2022/12/11 00:07:40;;;;;;;;;;;;;;;1.13;72.48;97691.34;7379067;19;19926;-71
2022/12/11 00:10:07;;;;;;;;;;;;;;;1.09;72.36;97695.97;7380790;19;19918;-71
2022/12/11 00:12:33;;;;;;;;;;;;;;;1.15;72.24;97689.47;7382935;19;19943;-71
2022/12/11 00:15:00;;;;;;;;;;;;;;;1.16;72.43;97685.91;7384466;19;19919;-71
2022/12/11 00:17:26;;;;;;;;;;;;;;;0.98;72.85;97682.91;7393782;19;19922;-71
2022/12/11 00:19:53;;;;;;;;;;;;;;;0.87;73.27;97694.94;7394203;19;19936;-71
2022/12/11 00:22:20;;;;;;;;;;;;;;;0.90;73.79;97691.28;7392178;19;20340;-71
2022/12/11 00:24:47;;;;;;;;;;;;;;;0.81;73.96;97695.38;7390755;19;19910;-71
2022/12/11 00:27:13;;;;;;;;;;;;;;;0.80;74.15;97690.28;7390161;19;19923;-71
2022/12/11 00:29:40;;;;;;;;;;;;;;;0.94;74.09;97689.28;7390126;19;19929;-71
2022/12/11 00:32:06;;;;;;;;;;;;;;;0.98;73.95;97685.50;7392933;19;20344;-70
2022/12/11 00:34:33;;;;;;;;;;;;;;;0.91;73.71;97689.50;7394374;19;20336;-71
2022/12/11 00:37:00;;;;;;;;;;;;;;;0.96;73.34;97680.41;7390176;19;20014;-71
2022/12/11 00:39:27;;;;;;;;;;;;;;;0.85;74.04;97680.38;7393170;19;20307;-70
2022/12/11 00:41:54;;;;;;;;;;;;;;;0.88;73.91;97683.56;7382610;19;19922;-71
2022/12/11 00:44:21;;;;;;;;;;;;;;;0.96;73.83;97680.41;7386970;19;19943;-70
2022/12/11 00:46:47;;;;;;;;;;;;;;;1.07;73.52;97672.63;7391994;19;19922;-71
2022/12/11 00:49:14;;;;;;;;;;;;;;;0.97;73.46;97679.44;7385847;19;20578;-71
2022/12/11 00:51:40;;;;;;;;;;;;;;;0.93;73.90;97672.81;7388566;19;20022;-70
2022/12/11 00:54:07;;;;;;;;;;;;;;;0.94;73.42;97677.06;7392623;19;20327;-70
2022/12/11 00:56:33;;;;;;;;;;;;;;;0.97;73.69;97682.06;7391538;19;20396;-71
2022/12/11 00:59:00;;;;;;;;;;;;;;;1.06;73.40;97675.34;7387529;19;20343;-71
2022/12/11 01:01:27;;;;;;;;;;;;;;;1.08;73.52;97679.50;7386893;19;19922;-71
2022/12/11 01:03:53;;;;;;;;;;;;;;;1.04;73.63;97685.06;7393675;19;19922;-71
2022/12/11 01:06:23;;;;;;;;;;;;;;;1.09;73.38;97690.75;7393027;19;19919;-71
2022/12/11 01:10:22;;;;;;;;;;;;;;;1.19;72.88;97689.13;7392024;19;20276;-71
2022/12/11 01:11:36;;;;;;;;;;;;;;;1.14;72.90;97699.06;7392484;19;19950;-71
2022/12/11 01:14:04;;;;;;;;;;;;;;;1.15;73.54;97692.91;7389639;19;19927;-71
2022/12/11 01:16:30;;;;;;;;;;;;;;;1.04;73.12;97708.50;7387877;19;20286;-71
2022/12/11 01:18:57;;;;;;;;;;;;;;;1.07;73.75;97703.06;7392244;19;20357;-71
2022/12/11 01:21:23;;;;;;;;;;;;;;;1.07;73.92;97709.09;7388353;19;19922;-71
2022/12/11 01:23:50;;;;;;;;;;;;;;;1.02;73.80;97708.59;7393503;19;20657;-71
2022/12/11 01:26:17;;;;;;;;;;;;;;;0.95;74.17;97714.34;7391866;19;19921;-72
2022/12/11 01:28:44;;;;;;;;;;;;;;;1.06;74.67;97717.03;7390300;19;20293;-71
2022/12/11 01:31:11;;;;;;;;;;;;;;;1.12;74.27;97718.34;7385689;19;19923;-71
2022/12/11 01:33:37;;;;;;;;;;;;;;;1.15;74.26;97713.75;7387625;19;19911;-71
2022/12/11 01:36:11;;;;;;;;;;;;;;;1.13;73.96;97710.41;7391637;19;19919;-71
2022/12/11 01:38:38;;;;;;;;;;;;;;;1.08;74.37;97720.38;7391601;19;19919;-71
2022/12/11 01:41:04;;;;;;;;;;;;;;;1.16;74.10;97706.75;7388178;19;19919;-71
2022/12/11 01:43:31;;;;;;;;;;;;;;;1.10;74.24;97708.03;7391838;19;19915;-71
2022/12/11 01:45:57;;;;;;;;;;;;;;;1.21;73.37;97715.06;7391213;19;19923;-71
2022/12/11 01:48:24;;;;;;;;;;;;;;;1.09;73.71;97716.81;7381832;19;19940;-71
2022/12/11 01:50:55;;;;;;;;;;;;;;;1.12;73.94;97713.16;7383171;19;19918;-70
2022/12/11 01:53:23;;;;;;;;;;;;;;;1.27;72.86;97714.63;7389603;19;19919;-70
2022/12/11 01:55:50;;;;;;;;;;;;;;;1.05;72.75;97720.56;7389838;19;19910;-70
2022/12/11 01:58:17;;;;;;;;;;;;;;;0.85;74.01;97717.66;7389169;19;19931;-71
2022/12/11 02:00:43;;;;;;;;;;;;;;;0.98;73.86;97721.97;7386794;19;20306;-71
2022/12/11 02:03:10;;;;;;;;;;;;;;;1.15;73.79;97721.56;7391497;19;19943;-71
2022/12/11 02:05:37;;;;;;;;;;;;;;;1.07;73.96;97729.94;7385733;19;19926;-71
2022/12/11 02:08:04;;;;;;;;;;;;;;;1.04;73.99;97729.34;7384337;19;19915;-71
2022/12/11 02:10:33;;;;;;;;;;;;;;;1.00;73.98;97723.53;7384600;19;20596;-71
2022/12/11 02:13:01;;;;;;;;;;;;;;;1.08;73.14;97733.38;7389083;19;20284;-71
2022/12/11 02:15:34;;;;;;;;;;;;;;;1.09;72.53;97735.88;7386632;19;20301;-70
2022/12/11 02:18:23;;;;;;;;;;;;;;;0.96;73.31;97735.09;7390046;19;20331;-71
2022/12/11 02:20:54;;;;;;;;;;;;;;;0.98;73.12;97733.22;7385097;19;19961;-72
2022/12/11 02:23:28;;;;;;;;;;;;;;;1.00;73.92;97739.16;7385384;19;19923;-71
2022/12/11 02:25:55;;;;;;;;;;;;;;;0.83;74.57;97727.34;7387489;19;19918;-71
2022/12/11 02:28:25;;;;;;;;;;;;;;;0.88;74.55;97733.03;7388808;19;19944;-71
2022/12/11 02:31:00;;;;;;;;;;;;;;;1.02;73.77;97726.00;7388192;19;19947;-71
2022/12/11 02:33:36;;;;;;;;;;;;;;;0.92;73.84;97722.41;7391308;19;19923;-71
2022/12/11 02:36:02;;;;;;;;;;;;;;;0.87;73.66;97717.53;7388264;19;19919;-71
2022/12/11 02:38:30;;;;;;;;;;;;;;;0.93;74.23;97716.28;7382041;19;19919;-71
2022/12/11 02:40:56;;;;;;;;;;;;;;;0.95;73.91;97715.22;7382888;19;19948;-71
2022/12/11 02:43:23;;;;;;;;;;;;;;;0.92;74.32;97719.78;7386368;19;19922;-71
2022/12/11 02:45:49;;;;;;;;;;;;;;;0.82;74.58;97719.66;7388422;19;20328;-71
2022/12/11 02:48:16;;;;;;;;;;;;;;;0.94;74.64;97723.13;7388013;19;20348;-71
2022/12/11 02:50:44;;;;;;;;;;;;;;;1.15;74.03;97723.34;7384097;19;20627;-71
2022/12/11 02:53:11;;;;;;;;;;;;;;;1.15;73.44;97725.94;7390239;19;20359;-71
2022/12/11 02:55:38;;;;;;;;;;;;;;;0.97;74.28;97728.09;7381830;19;19943;-71
2022/12/11 02:58:06;;;;;;;;;;;;;;;0.95;74.49;97732.59;7383856;19;19943;-71
2022/12/11 03:00:32;;;;;;;;;;;;;;;0.96;74.42;97727.28;7386149;19;19919;-71
2022/12/11 03:02:59;;;;;;;;;;;;;;;1.07;74.15;97729.09;7387621;19;19922;-71
2022/12/11 03:05:26;;;;;;;;;;;;;;;1.21;73.20;97728.94;7387757;19;20343;-71
2022/12/11 03:07:53;;;;;;;;;;;;;;;1.12;73.34;97720.97;7389683;19;19919;-71
2022/12/11 03:10:20;;;;;;;;;;;;;;;0.97;74.03;97713.31;7379141;19;19925;-71
2022/12/11 03:12:47;;;;;;;;;;;;;;;1.00;74.22;97714.84;7380633;19;19947;-70
2022/12/11 03:15:19;;;;;;;;;;;;;;;1.03;74.14;97712.06;7381317;19;20664;-71
2022/12/11 03:17:55;;;;;;;;;;;;;;;1.08;73.81;97715.16;7387347;19;19943;-71
2022/12/11 03:20:34;;;;;;;;;;;;;;;1.06;73.95;97714.44;7384489;19;19922;-71
2022/12/11 03:23:21;;;;;;;;;;;;;;;1.01;74.59;97719.13;7388839;19;19955;-71
2022/12/11 03:25:52;;;;;;;;;;;;;;;0.93;74.49;97714.50;7387240;19;19914;-71
2022/12/11 03:28:28;;;;;;;;;;;;;;;1.10;74.03;97719.28;7379694;19;19926;-71
2022/12/11 03:30:55;;;;;;;;;;;;;;;1.14;73.94;97724.28;7381863;19;20343;-71
2022/12/11 03:33:23;;;;;;;;;;;;;;;1.23;72.53;97719.22;7384344;19;19915;-71
2022/12/11 03:35:55;;;;;;;;;;;;;;;1.09;72.21;97722.00;7386209;19;19951;-71
2022/12/11 03:38:26;;;;;;;;;;;;;;;1.07;71.47;97724.72;7386886;19;19923;-71
2022/12/11 03:40:54;;;;;;;;;;;;;;;1.09;70.72;97717.63;7383522;19;19919;-71
2022/12/11 03:43:20;;;;;;;;;;;;;;;1.12;71.46;97716.56;7384216;19;19923;-71
2022/12/11 03:45:47;;;;;;;;;;;;;;;1.03;71.72;97719.88;7382759;19;20446;-71
2022/12/11 03:48:13;;;;;;;;;;;;;;;1.06;71.58;97712.66;7384481;19;19979;-70
2022/12/11 03:50:40;;;;;;;;;;;;;;;0.94;71.96;97720.53;7388245;19;19923;-71
2022/12/11 03:53:07;;;;;;;;;;;;;;;0.98;71.85;97724.56;7393464;19;19915;-71
2022/12/11 03:55:33;;;;;;;;;;;;;;;1.01;72.21;97722.56;7392593;19;19922;-71
2022/12/11 03:58:00;;;;;;;;;;;;;;;0.94;72.50;97717.91;7392259;19;19943;-71
2022/12/11 04:00:27;;;;;;;;;;;;;;;0.79;72.35;97714.63;7390417;19;19910;-71
2022/12/11 04:03:11;;;;;;;;;;;;;;;0.90;72.33;97708.69;7387873;19;19914;-71
2022/12/11 04:05:44;;;;;;;;;;;;;;;0.73;73.52;97709.88;7391827;19;19965;-71
2022/12/11 04:08:10;;;;;;;;;;;;;;;0.83;73.35;97700.47;7396827;19;19918;-71
2022/12/11 04:10:37;;;;;;;;;;;;;;;0.69;73.98;97704.09;7387298;19;19918;-71
2022/12/11 04:13:04;;;;;;;;;;;;;;;0.83;73.36;97701.28;7391389;19;19923;-71
2022/12/11 04:15:31;;;;;;;;;;;;;;;0.86;73.45;97690.66;7390280;19;19919;-71
2022/12/11 04:26:15;;;;;;;;;;;;;;;0.76;74.62;97665.41;7393542;19;19919;-71
2022/12/11 04:28:42;;;;;;;;;;;;;;;0.84;74.43;97668.28;7390429;19;20344;-71
2022/12/11 04:31:12;;;;;;;;;;;;;;;0.77;74.29;97678.31;7387055;19;19938;-71
2022/12/11 04:33:39;;;;;;;;;;;;;;;0.87;73.73;97679.31;7393878;19;19982;-71
2022/12/11 04:36:06;;;;;;;;;;;;;;;0.74;74.00;97677.69;7389088;19;19915;-71
2022/12/11 04:38:33;;;;;;;;;;;;;;;0.68;74.17;97675.53;7392543;19;19919;-71
2022/12/11 04:41:00;;;;;;;;;;;;;;;0.65;74.54;97671.38;7388936;19;19919;-71
2022/12/11 04:43:26;;;;;;;;;;;;;;;0.64;74.52;97680.97;7394494;19;19947;-71
2022/12/11 04:46:05;;;;;;;;;;;;;;;0.60;74.75;97678.69;7390171;19;19918;-71
2022/12/11 04:48:32;;;;;;;;;;;;;;;0.69;74.70;97679.81;7390118;19;19922;-71
2022/12/11 04:50:59;;;;;;;;;;;;;;;0.70;74.73;97684.06;7387051;19;19923;-71
2022/12/11 04:53:25;;;;;;;;;;;;;;;0.67;74.40;97687.72;7386322;19;20267;-71
2022/12/11 04:55:52;;;;;;;;;;;;;;;0.80;74.14;97685.06;7387969;19;20355;-71
2022/12/11 04:58:18;;;;;;;;;;;;;;;0.75;73.97;97681.97;7390918;19;19918;-71
2022/12/11 05:00:45;;;;;;;;;;;;;;;0.69;74.49;97685.84;7386327;19;19955;-71
2022/12/11 05:03:11;;;;;;;;;;;;;;;0.63;74.46;97684.53;7390507;19;20245;-71
2022/12/11 05:05:38;;;;;;;;;;;;;;;0.69;74.58;97682.44;7389918;19;19990;-70
2022/12/11 05:08:05;;;;;;;;;;;;;;;0.61;74.76;97681.19;7389261;19;20283;-70
2022/12/11 05:10:31;;;;;;;;;;;;;;;0.58;74.75;97680.56;7380977;19;19922;-71
2022/12/11 05:12:58;;;;;;;;;;;;;;;0.55;74.68;97679.00;7389593;19;19927;-71
2022/12/11 05:15:24;;;;;;;;;;;;;;;0.52;74.68;97678.41;7388645;19;19915;-71
2022/12/11 05:17:51;;;;;;;;;;;;;;;0.65;74.78;97687.00;7390590;19;19918;-71
2022/12/11 05:20:17;;;;;;;;;;;;;;;0.68;74.12;97671.16;7388321;19;19927;-72
2022/12/11 05:22:44;;;;;;;;;;;;;;;0.56;74.38;97677.28;7388931;19;19915;-72
2022/12/11 05:25:10;;;;;;;;;;;;;;;0.39;74.65;97681.88;7383463;19;19923;-72
2022/12/11 05:27:38;;;;;;;;;;;;;;;0.25;74.58;97692.44;7379584;19;19914;-72
2022/12/11 05:30:04;;;;;;;;;;;;;;;0.36;74.74;97702.09;7385154;19;19922;-72
2022/12/11 05:32:31;;;;;;;;;;;;;;;0.44;74.98;97691.97;7387293;19;19936;-71
2022/12/11 05:34:57;;;;;;;;;;;;;;;0.42;75.04;97683.44;7387304;19;20385;-71
2022/12/11 05:37:24;;;;;;;;;;;;;;;0.41;74.86;97687.00;7389492;19;19923;-71
2022/12/11 05:39:52;;;;;;;;;;;;;;;0.20;75.24;97689.34;7389281;19;20136;-71
2022/12/11 05:42:18;;;;;;;;;;;;;;;0.21;74.93;97683.19;7382328;19;19947;-71
2022/12/11 05:44:52;;;;;;;;;;;;;;;0.00;75.39;97677.75;7206055;19;3494128;-71
2022/12/11 05:47:19;;;;;;;;;;;;;;;-0.08;75.43;97683.47;7389874;19;19914;-71
2022/12/11 05:49:46;;;;;;;;;;;;;;;-0.04;75.67;97684.09;7390041;19;20340;-72
2022/12/11 05:52:13;;;;;;;;;;;;;;;0.12;75.60;97681.25;7389115;19;19927;-72
2022/12/11 05:54:39;;;;;;;;;;;;;;;0.28;75.58;97684.44;7391481;19;19939;-72
2022/12/11 05:57:06;;;;;;;;;;;;;;;0.49;74.93;97682.06;7389049;19;19943;-71
2022/12/11 05:59:32;;;;;;;;;;;;;;;0.46;74.81;97668.47;7384889;19;19914;-72
2022/12/11 06:01:59;;;;;;;;;;;;;;;0.39;74.44;97666.28;7387231;19;20303;-71
2022/12/11 06:04:26;;;;;;;;;;;;;;;0.44;74.49;97664.19;7389987;19;19943;-71
2022/12/11 06:06:53;;;;;;;;;;;;;;;0.41;74.76;97663.56;7390231;19;19919;-71
2022/12/11 06:09:19;;;;;;;;;;;;;;;0.21;74.81;97665.84;7389857;19;20378;-71
2022/12/11 06:11:46;;;;;;;;;;;;;;;0.09;75.05;97661.50;7388991;19;19922;-71
2022/12/11 06:14:18;;;;;;;;;;;;;;;-0.11;75.24;97654.25;7386142;19;21097;-71
2022/12/11 06:16:45;;;;;;;;;;;;;;;-0.29;75.62;97658.94;7384416;19;20372;-70
2022/12/11 06:19:13;;;;;;;;;;;;;;;-0.47;75.63;97656.69;7388814;19;19923;-71
2022/12/11 06:21:39;;;;;;;;;;;;;;;-0.38;75.72;97654.38;7386929;19;20517;-71
2022/12/11 06:24:09;;;;;;;;;;;;;;;-0.48;75.68;97652.41;7388495;19;19923;-71
2022/12/11 06:26:35;;;;;;;;;;;;;;;-0.58;76.06;97660.94;7389561;19;20321;-71
2022/12/11 06:29:02;;;;;;;;;;;;;;;-0.57;76.48;97658.25;7388729;19;19923;-71
2022/12/11 06:31:36;;;;;;;;;;;;;;;-0.55;76.24;97652.94;7384901;19;19979;-71
2022/12/11 06:34:04;;;;;;;;;;;;;;;-0.67;76.75;97655.41;7385904;19;19918;-71
2022/12/11 06:36:31;;;;;;;;;;;;;;;-0.67;77.02;97645.03;7387348;19;19946;-71
2022/12/11 06:38:57;;;;;;;;;;;;;;;-0.60;76.26;97640.25;7387760;19;19970;-71
2022/12/11 06:41:24;;;;;;;;;;;;;;;-0.61;76.24;97651.56;7387577;19;19918;-72
2022/12/11 06:43:51;;;;;;;;;;;;;;;-0.63;75.97;97644.81;7388628;19;19951;-72
2022/12/11 06:46:21;;;;;;;;;;;;;;;-0.68;76.11;97645.16;7387239;19;19918;-71
2022/12/11 06:48:48;;;;;;;;;;;;;;;-0.68;76.33;97653.78;7385587;19;19923;-72
2022/12/11 06:51:18;;;;;;;;;;;;;;;-0.63;75.63;97650.88;7380596;19;19922;-71
2022/12/11 06:53:52;;;;;;;;;;;;;;;-0.64;75.89;97658.75;7388897;19;19934;-72
2022/12/11 06:56:19;;;;;;;;;;;;;;;-0.60;76.22;97663.66;7387212;19;19922;-72
2022/12/11 06:58:46;;;;;;;;;;;;;;;-0.49;76.88;97661.16;7388744;19;19937;-72
2022/12/11 07:01:18;;;;;;;;;;;;;;;-0.42;76.93;97652.91;7385015;19;19919;-72
2022/12/11 07:03:45;;;;;;;;;;;;;;;-0.35;76.94;97665.41;7388699;19;19951;-72
2022/12/11 07:06:11;;;;;;;;;;;;;;;-0.16;76.58;97672.75;7385189;19;19954;-71
2022/12/11 07:08:38;;;;;;;;;;;;;;;-0.18;77.16;97682.44;7385886;19;20368;-72
2022/12/11 07:11:05;;;;;;;;;;;;;;;0.10;76.79;97675.31;7384533;19;19936;-72
2022/12/11 07:13:32;;;;;;;;;;;;;;;0.28;76.16;97681.00;7387188;19;19947;-72
2022/12/11 07:16:00;;;;;;;;;;;;;;;0.30;75.95;97682.56;7385805;19;19922;-72
2022/12/11 07:18:27;;;;;;;;;;;;;;;0.36;75.67;97679.50;7387812;19;19914;-72
2022/12/11 07:20:53;;;;;;;;;;;;;;;0.41;75.83;97681.78;7385196;19;20264;-72
2022/12/11 07:23:20;;;;;;;;;;;;;;;0.38;76.23;97682.84;7382192;19;19939;-72
2022/12/11 07:25:47;;;;;;;;;;;;;;;0.39;75.70;97675.84;7384055;19;19921;-72
2022/12/11 07:28:14;;;;;;;;;;;;;;;0.40;75.94;97674.94;7385743;19;20392;-72
2022/12/11 07:30:42;;;;;;;;;;;;;;;0.44;76.12;97673.75;7383963;19;19919;-72
2022/12/11 07:33:08;;;;;;;;;;;;;;;0.47;75.86;97677.91;7389705;19;19923;-71
2022/12/11 07:35:35;;;;;;;;;;;;;;;0.27;76.75;97684.56;7387389;19;19963;-72
2022/12/11 07:38:01;;;;;;;;;;;;;;;0.44;76.68;97678.97;7385444;19;19927;-71
2022/12/11 07:40:28;;;;;;;;;;;;;;;0.48;76.90;97680.41;7381577;19;19934;-71
2022/12/11 07:42:54;;;;;;;;;;;;;;;0.61;76.56;97688.19;7382235;19;20336;-71
2022/12/11 07:45:21;;;;;;;;;;;;;;;0.79;75.55;97683.41;7382498;19;20336;-71
2022/12/11 07:47:47;;;;;;;;;;;;;;;0.85;74.77;97682.97;7386661;19;19919;-71
2022/12/11 07:50:14;;;;;;;;;;;;;;;0.88;73.73;97688.78;7384943;19;20336;-71
2022/12/11 07:52:41;;;;;;;;;;;;;;;0.72;74.30;97685.63;7389108;19;19947;-71
2022/12/11 07:55:07;;;;;;;;;;;;;;;0.79;74.42;97689.47;7383114;19;19918;-71
2022/12/11 07:57:35;;;;;;;;;;;;;;;0.86;74.82;97688.03;7379440;19;19982;-70
2022/12/11 08:00:02;;;;;;;;;;;;;;;0.76;74.80;97692.25;7384279;19;19955;-71
2022/12/11 08:02:37;;;;;;;;;;;;;;;0.95;74.51;97683.09;7384266;19;20350;-71
2022/12/11 08:05:04;;;;;;;;;;;;;;;1.00;74.12;97687.06;7386531;19;19939;-71
2022/12/11 08:07:32;;;;;;;;;;;;;;;0.88;72.96;97678.34;7385624;19;19933;-71
2022/12/11 08:09:59;;;;;;;;;;;;;;;0.90;74.24;97678.25;7384105;19;19926;-72
2022/12/11 08:12:28;;;;;;;;;;;;;;;0.94;73.68;97676.25;7381768;19;19994;-71
2022/12/11 08:14:54;;;;;;;;;;;;;;;0.91;73.78;97673.88;7379239;19;19923;-71
2022/12/11 08:17:21;;;;;;;;;;;;;;;1.03;73.35;97681.63;7384693;19;19963;-72
2022/12/11 08:19:54;;;;;;;;;;;;;;;1.09;73.37;97672.53;7385314;19;21078;-72
2022/12/11 08:22:21;;;;;;;;;;;;;;;1.09;73.90;97675.13;7384501;19;19929;-71
2022/12/11 08:24:47;;;;;;;;;;;;;;;0.87;73.58;97679.31;7385473;19;19915;-71
2022/12/11 08:27:14;;;;;;;;;;;;;;;1.06;73.73;97680.56;7383622;19;20376;-71
2022/12/11 08:29:40;;;;;;;;;;;;;;;0.76;74.56;97684.44;7380512;19;19927;-69
2022/12/11 08:32:07;;;;;;;;;;;;;;;0.88;73.39;97680.97;7381595;19;19939;-71
2022/12/11 08:34:37;;;;;;;;;;;;;;;1.05;73.06;97684.09;7386107;19;20277;-70
2022/12/11 08:37:04;;;;;;;;;;;;;;;0.94;72.76;97679.69;7388957;19;20271;-70
2022/12/11 08:39:31;;;;;;;;;;;;;;;0.96;73.39;97685.63;7389056;19;19922;-71
2022/12/11 08:41:57;;;;;;;;;;;;;;;0.88;73.89;97682.75;7391697;19;19923;-71
2022/12/11 08:44:25;;;;;;;;;;;;;;;0.98;74.15;97682.91;7391214;19;20251;-71
2022/12/11 08:46:52;;;;;;;;;;;;;;;1.01;73.46;97683.50;7386578;19;20143;-71
2022/12/11 08:49:18;;;;;;;;;;;;;;;1.06;73.61;97678.78;7389601;19;19918;-71
2022/12/11 08:51:45;;;;;;;;;;;;;;;1.01;74.35;97682.69;7388676;19;19923;-71
2022/12/11 08:54:11;;;;;;;;;;;;;;;1.13;74.37;97681.75;7391770;19;19951;-71
2022/12/11 08:56:38;;;;;;;;;;;;;;;1.16;74.71;97676.34;7390874;19;19919;-71
2022/12/11 08:59:05;;;;;;;;;;;;;;;0.88;75.12;97675.75;7383054;19;20205;-70
2022/12/11 09:01:31;;;;;;;;;;;;;;;0.97;75.02;97676.03;7387279;19;19931;-71
2022/12/11 09:04:01;;;;;;;;;;;;;;;0.96;75.35;97679.56;7386670;19;19922;-71
2022/12/11 09:06:28;;;;;;;;;;;;;;;0.90;75.00;97678.25;7388434;19;20257;-71
2022/12/11 09:08:57;;;;;;;;;;;;;;;0.97;75.13;97670.81;7392271;19;19918;-71
2022/12/11 09:11:25;;;;;;;;;;;;;;;1.21;74.93;97671.63;7387383;19;19939;-72
2022/12/11 09:13:52;;;;;;;;;;;;;;;1.22;74.69;97668.06;7389161;19;19926;-71
2022/12/11 09:16:19;;;;;;;;;;;;;;;1.34;75.01;97673.28;7389517;19;20335;-71
2022/12/11 09:18:46;;;;;;;;;;;;;;;1.51;74.05;97671.06;7387544;19;19923;-71
2022/12/11 09:21:14;;;;;;;;;;;;;;;1.60;73.61;97674.75;7384181;19;19947;-71
2022/12/11 09:23:40;;;;;;;;;;;;;;;1.49;73.00;97669.53;7389495;19;19918;-71
2022/12/11 09:26:09;;;;;;;;;;;;;;;1.23;73.76;97672.31;7389659;19;20368;-71
2022/12/11 09:28:36;;;;;;;;;;;;;;;1.32;74.23;97670.81;7391223;19;19922;-71
2022/12/11 09:31:12;;;;;;;;;;;;;;;1.20;74.48;97672.53;7386263;19;19933;-71
2022/12/11 09:33:39;;;;;;;;;;;;;;;1.18;74.81;97674.44;7390761;19;20416;-71
2022/12/11 09:36:06;;;;;;;;;;;;;;;1.24;74.64;97671.38;7385524;19;19923;-71
2022/12/11 09:38:32;;;;;;;;;;;;;;;1.67;73.75;97670.72;7388623;19;19926;-71
2022/12/11 09:40:59;;;;;;;;;;;;;;;1.51;73.24;97678.06;7388070;19;20293;-71
2022/12/11 09:43:28;;;;;;;;;;;;;;;1.73;72.11;97667.66;7389753;19;19923;-71
2022/12/11 09:45:55;;;;;;;;;;;;;;;1.68;72.38;97661.13;7390448;19;19999;-71
2022/12/11 09:48:23;;;;;;;;;;;;;;;1.69;72.35;97658.41;7385353;19;19919;-71
2022/12/11 09:50:50;;;;;;;;;;;;;;;1.75;72.01;97662.31;7383079;19;19915;-72
2022/12/11 09:53:17;;;;;;;;;;;;;;;1.83;71.23;97656.53;7378245;19;19922;-71
2022/12/11 09:55:53;;;;;;;;;;;;;;;1.89;71.29;97648.22;7383059;19;19918;-71
2022/12/11 09:58:23;;;;;;;;;;;;;;;1.88;71.90;97650.00;7388096;19;20352;-71
2022/12/11 10:00:55;;;;;;;;;;;;;;;1.78;71.39;97651.66;7384744;19;20372;-71
2022/12/11 10:03:28;;;;;;;;;;;;;;;1.99;71.90;97649.16;7388570;19;19918;-70
2022/12/11 10:06:01;;;;;;;;;;;;;;;2.16;71.49;97655.69;7387205;19;19966;-71
2022/12/11 10:08:33;;;;;;;;;;;;;;;2.11;71.18;97656.03;7386239;19;19935;-70
2022/12/11 10:11:18;;;;;;;;;;;;;;;2.05;71.77;97650.44;7379990;19;19922;-70
2022/12/11 10:14:01;;;;;;;;;;;;;;;2.25;71.42;97659.34;7386823;19;19911;-70
2022/12/11 10:16:38;;;;;;;;;;;;;;;2.16;71.41;97651.28;7389889;19;19931;-71
2022/12/11 10:19:04;;;;;;;;;;;;;;;2.24;71.29;97642.84;7388262;19;20380;-70
2022/12/11 10:21:35;;;;;;;;;;;;;;;2.26;71.00;97646.16;7383503;19;19915;-71
2022/12/11 10:24:02;;;;;;;;;;;;;;;1.87;72.34;97642.28;7388117;19;19947;-71
2022/12/11 10:26:29;;;;;;;;;;;;;;;1.71;72.76;97638.28;7384157;19;19943;-71
2022/12/11 10:28:59;;;;;;;;;;;;;;;1.96;72.43;97633.75;7384798;19;20067;-71
2022/12/11 10:31:31;;;;;;;;;;;;;;;1.95;72.60;97630.31;7384903;19;19926;-71
2022/12/11 10:34:07;;;;;;;;;;;;;;;2.07;71.95;97620.69;7388562;19;19918;-71
2022/12/11 10:36:34;;;;;;;;;;;;;;;2.13;71.44;97620.22;7385504;19;20359;-71
2022/12/11 10:39:01;;;;;;;;;;;;;;;2.32;71.25;97619.59;7386975;19;19955;-70
2022/12/11 10:41:37;;;;;;;;;;;;;;;2.37;70.93;97619.19;7386747;19;19923;-71
2022/12/11 10:44:15;;;;;;;;;;;;;;;2.34;70.70;97617.69;7383250;19;19911;-71
2022/12/11 10:46:42;;;;;;;;;;;;;;;2.52;70.45;97619.75;7387539;19;20311;-71
2022/12/11 10:49:20;;;;;;;;;;;;;;;2.30;69.82;97620.66;7388422;19;19914;-71
2022/12/11 10:51:46;;;;;;;;;;;;;;;2.35;70.83;97616.72;7388168;19;20372;-71
2022/12/11 10:54:17;;;;;;;;;;;;;;;2.42;70.23;97614.44;7387438;19;20339;-70
2022/12/11 10:56:44;;;;;;;;;;;;;;;2.60;70.20;97607.72;7385981;19;20272;-71
2022/12/11 10:59:13;;;;;;;;;;;;;;;2.67;69.33;97605.47;7381725;19;20360;-71
2022/12/11 11:01:44;;;;;;;;;;;;;;;2.65;68.90;97599.53;7383040;19;19931;-71
2022/12/11 11:04:18;;;;;;;;;;;;;;;2.69;68.21;97600.13;7384345;19;20361;-71
2022/12/11 11:06:44;;;;;;;;;;;;;;;2.70;68.37;97602.59;7385586;19;20266;-71
2022/12/11 11:09:29;;;;;;;;;;;;;;;2.48;69.32;97600.91;7386067;19;19943;-71
2022/12/11 11:11:56;;;;;;;;;;;;;;;2.71;69.43;97599.00;7384154;19;19918;-71
2022/12/11 11:14:22;;;;;;;;;;;;;;;2.64;67.85;97590.88;7387408;19;20274;-71
2022/12/11 11:16:50;;;;;;;;;;;;;;;2.71;68.79;97591.19;7383677;19;20278;-71
2022/12/11 11:19:23;;;;;;;;;;;;;;;2.60;68.24;97594.66;7384327;19;19957;-70
2022/12/11 11:21:51;;;;;;;;;;;;;;;2.69;67.68;97594.91;7385911;19;19943;-70
2022/12/11 11:24:25;;;;;;;;;;;;;;;2.83;67.47;97586.75;7389080;19;19919;-70
2022/12/11 11:26:52;;;;;;;;;;;;;;;2.67;67.66;97591.56;7382989;19;20469;-70
2022/12/11 11:29:38;;;;;;;;;;;;;;;2.81;67.36;97584.25;7386018;19;20335;-70
2022/12/11 11:32:13;;;;;;;;;;;;;;;2.75;66.80;97573.50;7381900;19;19950;-70
2022/12/11 11:34:40;;;;;;;;;;;;;;;2.82;67.28;97570.25;7375515;19;19927;-70
2022/12/11 11:37:14;;;;;;;;;;;;;;;2.51;66.68;97577.16;7387264;19;19949;-70
2022/12/11 11:39:43;;;;;;;;;;;;;;;2.48;66.67;97573.97;7384994;19;19922;-69
2022/12/11 11:42:26;;;;;;;;;;;;;;;2.56;67.26;97569.78;7384329;19;19919;-70
2022/12/11 11:45:04;;;;;;;;;;;;;;;2.55;67.54;97575.09;7388607;19;19951;-71
2022/12/11 11:47:33;;;;;;;;;;;;;;;2.48;68.31;97572.19;7387633;19;20379;-70
2022/12/11 11:50:05;;;;;;;;;;;;;;;2.46;68.35;97568.03;7382838;19;19919;-71
2022/12/11 11:52:44;;;;;;;;;;;;;;;2.54;69.10;97566.44;7380561;19;19930;-70
2022/12/11 11:55:11;;;;;;;;;;;;;;;2.49;67.62;97565.19;7380568;19;19944;-70
2022/12/11 11:57:51;;;;;;;;;;;;;;;2.68;68.14;97565.31;7386815;19;19923;-70
2022/12/11 12:00:22;;;;;;;;;;;;;;;2.76;66.64;97567.31;7381345;19;19923;-70
2022/12/11 12:02:50;;;;;;;;;;;;;;;2.60;67.38;97563.34;7386194;19;19929;-70
2022/12/11 12:05:18;;;;;;;;;;;;;;;2.73;66.77;97568.38;7382378;19;19927;-70
2022/12/11 12:08:11;;;;;;;;;;;;;;;2.70;67.36;97567.81;7379566;19;19947;-70
2022/12/11 12:10:56;;;;;;;;;;;;;;;2.74;66.39;97571.81;7376944;19;19922;-70
2022/12/11 12:13:26;;;;;;;;;;;;;;;2.80;65.14;97566.09;7389959;19;20340;-70
2022/12/11 12:16:19;;;;;;;;;;;;;;;2.77;65.46;97567.19;7390668;19;19952;-70
2022/12/11 12:19:17;;;;;;;;;;;;;;;2.39;67.28;97565.91;7393452;19;19919;-71
2022/12/11 12:21:46;;;;;;;;;;;;;;;2.19;68.44;97567.53;7390077;19;19918;-70
2022/12/11 12:24:19;;;;;;;;;;;;;;;2.37;68.73;97566.97;7385920;19;19915;-69
2022/12/11 12:26:49;;;;;;;;;;;;;;;2.66;68.28;97569.84;7386351;19;19918;-70
2022/12/11 12:29:34;;;;;;;;;;;;;;;2.56;67.95;97564.56;7387947;19;19911;-70
2022/12/11 12:32:08;;;;;;;;;;;;;;;2.62;68.04;97566.66;7390115;19;19918;-69
2022/12/11 12:34:48;;;;;;;;;;;;;;;2.50;69.18;97566.81;7390606;19;19919;-70
2022/12/11 12:37:16;;;;;;;;;;;;;;;2.08;70.06;97562.34;7388279;19;19942;-71
2022/12/11 12:39:56;;;;;;;;;;;;;;;2.38;69.63;97560.81;7387386;19;19930;-70
2022/12/11 12:42:36;;;;;;;;;;;;;;;2.48;69.18;97558.31;7385598;19;19960;-69
2022/12/11 12:45:09;;;;;;;;;;;;;;;2.54;67.91;97545.56;7385287;19;19918;-70
2022/12/11 12:47:36;;;;;;;;;;;;;;;2.49;68.58;97547.72;7391054;19;19926;-70
2022/12/11 12:50:03;;;;;;;;;;;;;;;2.35;68.81;97541.03;7389779;19;20335;-69
2022/12/11 12:52:31;;;;;;;;;;;;;;;2.45;67.93;97538.50;7389033;19;19930;-69
2022/12/11 12:55:16;;;;;;;;;;;;;;;2.31;68.34;97539.59;7387786;19;19939;-69
2022/12/11 12:57:48;;;;;;;;;;;;;;;2.10;68.59;97539.56;7384118;19;19926;-69
2022/12/11 13:00:25;;;;;;;;;;;;;;;2.21;69.38;97541.28;7385715;19;19959;-70
2022/12/11 13:02:52;;;;;;;;;;;;;;;2.17;68.78;97534.69;7387406;19;19951;-70
2022/12/11 13:05:24;;;;;;;;;;;;;;;2.18;68.21;97539.75;7385805;19;19911;-70
2022/12/11 13:07:52;;;;;;;;;;;;;;;2.22;68.82;97539.53;7387816;19;20229;-71
2022/12/11 13:10:24;;;;;;;;;;;;;;;2.13;68.59;97538.47;7385376;19;19923;-70
2022/12/11 13:12:50;;;;;;;;;;;;;;;2.12;68.41;97544.66;7380116;19;19943;-70